SCBA/BBA METAR and TAF weather

Enter ICAO airport designator
Station Type Date Time Source
SCBA METAR 2020/09/22 20:00 UTC NOAA

SCBA 222000Z 29026KT 270V330 9999 FEW040 SCT100 BKN200 09/M02 Q1014


Station Type Date Time Source
SCBA Decoded METAR 2020/09/22 20:00 UTC NOAA

Balmaceda, Chile (SCBA) 45-55S 071-41W 520M
Sep 22, 2020 - 04:00 PM EDT / 2020.09.22 2000 UTC
Wind: from the WNW (290 degrees) at 30 MPH (26 KT) (direction variable):0
Visibility: greater than 7 mile(s):0
Sky conditions: mostly cloudy
Temperature: 48 F (9 C)
Dew Point: 28 F (-2 C)
Relative Humidity: 45%
Pressure (altimeter): 29.94 in. Hg (1014 hPa)
ob: SCBA 222000Z 29026KT 270V330 9999 FEW040 SCT100 BKN200 09/M02 Q1014
cycle: 20

Station Type Date Time Source
SCBA TAF 2020/09/22 18:03 UTC NOAA

TAF SCBA 221632Z 2218/2318 30025KT 9999 SCT040 TX10/2219Z TN04/2310Z
TEMPO 2218/2221 30027G37KT
BECMG 2301/2303 30015KT BKN020

Example: see airport list